createdAt,value
2019-04-29T00:00:00.053Z,8.9
2019-04-29T00:00:35.985Z,8.9
2019-04-29T00:01:11.966Z,8.9
2019-04-29T00:04:47.997Z,8.8
2019-04-29T00:07:24.039Z,8.8
2019-04-29T00:09:00.038Z,8.8
2019-04-29T00:09:36.034Z,8.9
2019-04-29T00:10:12.096Z,8.8
2019-04-29T00:11:35.956Z,8.9
2019-04-29T00:13:48.022Z,8.8
2019-04-29T00:15:12.021Z,8.7
2019-04-29T00:15:47.966Z,8.7
2019-04-29T00:16:23.980Z,8.8
2019-04-29T00:17:35.988Z,8.7
2019-04-29T00:18:23.993Z,8.7
2019-04-29T00:18:59.971Z,8.7
2019-04-29T00:19:36.626Z,8.7
2019-04-29T00:20:12.010Z,8.7
2019-04-29T00:20:47.988Z,8.7
2019-04-29T00:22:11.974Z,8.7
2019-04-29T00:22:47.940Z,8.6
2019-04-29T00:25:12.002Z,8.6
2019-04-29T00:26:11.989Z,8.7
2019-04-29T00:27:11.999Z,8.6
2019-04-29T00:27:47.953Z,8.7
2019-04-29T00:28:24.034Z,8.6
2019-04-29T00:29:00.043Z,8.6
2019-04-29T00:29:36.005Z,8.6
2019-04-29T00:30:11.965Z,8.7
2019-04-29T00:30:48.066Z,8.6
2019-04-29T00:31:24.047Z,8.5
2019-04-29T00:32:00.001Z,8.6
2019-04-29T00:32:35.974Z,8.7
2019-04-29T00:33:12.045Z,8.6
2019-04-29T00:33:48.006Z,8.6
2019-04-29T00:34:23.999Z,8.7
2019-04-29T00:34:59.928Z,8.6
2019-04-29T00:35:36.026Z,8.6
2019-04-29T00:36:12.004Z,8.6
2019-04-29T00:36:47.995Z,8.7
2019-04-29T00:37:23.935Z,8.6
2019-04-29T00:38:00.037Z,8.5
2019-04-29T00:38:36.002Z,8.6
2019-04-29T00:39:11.970Z,8.6
2019-04-29T00:39:47.934Z,8.7
2019-04-29T00:40:24.042Z,8.6
2019-04-29T00:40:59.995Z,8.6
2019-04-29T00:41:36.023Z,8.5
2019-04-29T00:42:11.964Z,8.6
2019-04-29T00:42:48.027Z,8.6
2019-04-29T00:43:24.001Z,8.6
2019-04-29T00:43:59.964Z,8.6
2019-04-29T00:44:35.935Z,8.5
2019-04-29T00:45:12.012Z,8.5
2019-04-29T00:45:47.993Z,8.6
2019-04-29T00:46:24.001Z,8.5
2019-04-29T00:46:59.934Z,8.5
2019-04-29T00:47:36.016Z,8.5
2019-04-29T00:48:12.003Z,8.5
2019-04-29T00:48:47.955Z,8.5
2019-04-29T00:49:23.925Z,8.5
2019-04-29T00:50:00.021Z,8.5
2019-04-29T00:50:36.021Z,8.5
2019-04-29T00:51:11.952Z,8.5
2019-04-29T00:51:47.969Z,8.5
2019-04-29T00:52:24.022Z,8.5
2019-04-29T00:52:59.974Z,8.5
2019-04-29T00:53:35.963Z,8.5
2019-04-29T00:54:12.702Z,8.5
2019-04-29T00:54:48.092Z,8.5
2019-04-29T00:55:24.032Z,8.5
2019-04-29T00:55:59.951Z,8.5
2019-04-29T00:56:35.944Z,8.5
2019-04-29T00:57:12.025Z,8.5
2019-04-29T00:57:47.975Z,8.5
2019-04-29T00:58:24.010Z,8.6
2019-04-29T00:58:59.908Z,8.5
2019-04-29T00:59:36.023Z,8.4
2019-04-29T01:00:11.969Z,8.4
2019-04-29T01:00:47.976Z,8.6
2019-04-29T01:01:24.053Z,8.5
2019-04-29T01:02:00.036Z,8.4
2019-04-29T01:02:35.980Z,8.4
2019-04-29T01:03:11.969Z,8.5
2019-04-29T01:03:48.023Z,8.5
2019-04-29T01:04:24.005Z,8.5
2019-04-29T01:04:59.968Z,8.4
2019-04-29T01:05:35.944Z,8.5
2019-04-29T01:06:12.119Z,8.4
2019-04-29T01:06:47.985Z,8.5
2019-04-29T01:07:24.001Z,8.5
2019-04-29T01:07:59.944Z,8.5
2019-04-29T01:08:36.044Z,8.4
2019-04-29T01:09:12.005Z,8.5
2019-04-29T01:09:47.984Z,8.4
2019-04-29T01:10:23.982Z,8.5
2019-04-29T01:11:00.051Z,8.5
2019-04-29T01:11:36.004Z,8.5
2019-04-29T01:12:11.993Z,8.5
2019-04-29T01:12:59.957Z,8.5
2019-04-29T01:13:35.936Z,8.5
2019-04-29T01:14:12.036Z,8.4
2019-04-29T01:14:48.035Z,8.5
2019-04-29T01:15:23.962Z,8.4
2019-04-29T01:15:59.949Z,8.4
2019-04-29T01:16:36.028Z,8.4
2019-04-29T01:17:11.987Z,8.5
2019-04-29T01:17:47.958Z,8.4
2019-04-29T01:18:23.926Z,8.5
2019-04-29T01:18:59.999Z,8.5
2019-04-29T01:19:35.991Z,8.4
2019-04-29T01:20:12.000Z,8.5
2019-04-29T01:20:47.984Z,8.4
2019-04-29T01:21:35.942Z,8.4
2019-04-29T01:22:12.018Z,8.5
2019-04-29T01:22:47.994Z,8.4
2019-04-29T01:23:23.955Z,8.5
2019-04-29T01:23:59.902Z,8.5
2019-04-29T01:24:36.017Z,8.5
2019-04-29T01:25:12.056Z,8.4
2019-04-29T01:25:47.934Z,8.5
2019-04-29T01:26:23.924Z,8.4
2019-04-29T01:27:00.053Z,8.4
2019-04-29T01:27:35.964Z,8.5
2019-04-29T01:28:11.932Z,8.5
2019-04-29T01:28:49.755Z,8.5
2019-04-29T01:29:24.013Z,8.5
2019-04-29T01:30:12.060Z,8.5
2019-04-29T01:30:47.989Z,8.5
2019-04-29T01:31:23.972Z,8.4
2019-04-29T01:31:59.901Z,8.5
2019-04-29T01:32:35.999Z,8.4
2019-04-29T01:33:11.970Z,8.5
2019-04-29T01:33:47.963Z,8.5
2019-04-29T01:34:23.928Z,8.3
2019-04-29T01:34:59.976Z,8.4
2019-04-29T01:35:35.991Z,8.5
2019-04-29T01:36:11.932Z,8.4
2019-04-29T01:36:48.029Z,8.4
2019-04-29T01:37:23.991Z,8.4
2019-04-29T01:37:59.958Z,8.4
2019-04-29T01:38:49.227Z,8.4
2019-04-29T01:39:23.917Z,8.5
2019-04-29T01:40:00.009Z,8.5
2019-04-29T01:40:35.998Z,8.5
2019-04-29T01:41:11.948Z,8.4
2019-04-29T01:41:47.920Z,8.4
2019-04-29T01:42:24.005Z,8.4
2019-04-29T01:43:00.012Z,8.3
2019-04-29T01:43:35.973Z,8.4
2019-04-29T01:44:11.980Z,8.4
2019-04-29T01:44:48.015Z,8.4
2019-04-29T01:45:23.983Z,8.5
2019-04-29T01:45:59.975Z,8.3
2019-04-29T01:46:35.928Z,8.5
2019-04-29T01:47:12.010Z,8.4
2019-04-29T01:47:47.982Z,8.3
2019-04-29T01:48:23.961Z,8.4
2019-04-29T01:48:59.925Z,8.4
2019-04-29T01:49:36.000Z,8.5
2019-04-29T01:50:11.968Z,8.4
2019-04-29T01:50:47.942Z,8.5
2019-04-29T01:51:23.925Z,8.5
2019-04-29T01:52:00.001Z,8.4
2019-04-29T01:52:35.990Z,8.4
2019-04-29T01:53:11.927Z,8.4
2019-04-29T01:53:47.935Z,8.4
2019-04-29T01:54:24.028Z,8.5
2019-04-29T01:54:59.998Z,8.4
2019-04-29T01:55:35.973Z,8.4
2019-04-29T01:56:11.953Z,8.4
2019-04-29T01:56:48.012Z,8.4
2019-04-29T01:57:23.995Z,8.4
2019-04-29T01:57:59.930Z,8.3
2019-04-29T01:58:35.927Z,8.4
2019-04-29T01:59:12.002Z,8.3
2019-04-29T01:59:47.964Z,8.4
2019-04-29T02:00:23.932Z,8.4
2019-04-29T02:00:59.908Z,8.4
2019-04-29T02:01:35.988Z,8.4
2019-04-29T02:02:12.021Z,8.3
2019-04-29T02:02:47.941Z,8.4
2019-04-29T02:03:23.902Z,8.3
2019-04-29T02:04:00.039Z,8.3
2019-04-29T02:04:35.955Z,8.3
2019-04-29T02:05:11.978Z,8.4
2019-04-29T02:05:48.190Z,8.3
2019-04-29T02:06:24.000Z,8.3
2019-04-29T02:06:59.945Z,8.4
2019-04-29T02:07:35.908Z,8.4
2019-04-29T02:08:11.877Z,8.3
2019-04-29T02:08:48.062Z,8.4
2019-04-29T02:09:23.989Z,8.3
2019-04-29T02:10:11.974Z,8.4
2019-04-29T02:10:47.919Z,8.4
2019-04-29T02:11:24.033Z,8.4
2019-04-29T02:12:00.049Z,8.2
2019-04-29T02:12:35.950Z,8.3
2019-04-29T02:13:11.889Z,8.4
2019-04-29T02:13:47.965Z,8.3
2019-04-29T02:14:23.943Z,8.3
2019-04-29T02:14:59.932Z,8.4
2019-04-29T02:15:35.918Z,8.2
2019-04-29T02:16:12.007Z,8.3
2019-04-29T02:16:47.950Z,8.4
2019-04-29T02:17:23.944Z,8.3
2019-04-29T02:17:59.901Z,8.3
2019-04-29T02:18:35.977Z,8.3
2019-04-29T02:19:11.958Z,8.3
2019-04-29T02:19:47.912Z,8.3
2019-04-29T02:20:23.899Z,8.4
2019-04-29T02:20:59.974Z,8.4
2019-04-29T02:21:35.960Z,8.4
2019-04-29T02:22:11.917Z,8.3
2019-04-29T02:22:47.910Z,8.4
2019-04-29T02:23:23.985Z,8.3
2019-04-29T02:23:59.952Z,8.4
2019-04-29T02:24:35.916Z,8.3
2019-04-29T02:25:11.902Z,8.3
2019-04-29T02:25:47.980Z,8.5
2019-04-29T02:26:23.973Z,8.4
2019-04-29T02:26:59.911Z,8.3
2019-04-29T02:27:35.882Z,8.4
2019-04-29T02:28:11.974Z,8.3
2019-04-29T02:28:47.948Z,8.4
2019-04-29T02:29:23.907Z,8.4
2019-04-29T02:30:11.917Z,8.3
2019-04-29T02:30:47.886Z,8.3
2019-04-29T02:31:23.995Z,8.4
2019-04-29T02:31:59.944Z,8.4
2019-04-29T02:32:35.903Z,8.3
2019-04-29T02:33:11.892Z,8.3
2019-04-29T02:33:47.972Z,8.4
2019-04-29T02:34:23.958Z,8.4
2019-04-29T02:34:59.906Z,8.3
2019-04-29T02:35:35.886Z,8.4
2019-04-29T02:36:11.955Z,8.4
2019-04-29T02:36:47.951Z,8.3
2019-04-29T02:37:23.900Z,8.4
2019-04-29T02:37:59.873Z,8.3
2019-04-29T02:38:35.963Z,8.4
2019-04-29T02:39:11.949Z,8.4
2019-04-29T02:39:47.904Z,8.4
2019-04-29T02:40:23.896Z,8.3
2019-04-29T02:40:59.955Z,8.3
2019-04-29T02:41:35.940Z,8.3
2019-04-29T02:42:11.905Z,8.4
2019-04-29T02:42:47.878Z,8.4
2019-04-29T02:43:24.074Z,8.4
2019-04-29T02:43:59.926Z,8.4
2019-04-29T02:44:35.908Z,8.4
2019-04-29T02:45:11.985Z,8.4
2019-04-29T02:45:47.956Z,8.4
2019-04-29T02:46:23.911Z,8.3
2019-04-29T02:46:59.951Z,8.4
2019-04-29T02:47:35.972Z,8.4
2019-04-29T02:48:12.029Z,8.3
2019-04-29T02:48:47.931Z,8.4
2019-04-29T02:49:23.904Z,8.4
2019-04-29T02:49:59.970Z,8.3
2019-04-29T02:50:35.943Z,8.4
2019-04-29T02:51:11.919Z,8.4
2019-04-29T02:51:48.067Z,8.3
2019-04-29T02:52:23.993Z,8.3
2019-04-29T02:52:59.957Z,8.4
2019-04-29T02:53:35.919Z,8.4
2019-04-29T02:54:11.899Z,8.3
2019-04-29T02:54:47.965Z,8.4
2019-04-29T02:55:23.986Z,8.3
2019-04-29T02:55:59.916Z,8.3
2019-04-29T02:56:35.879Z,8.4
2019-04-29T02:57:11.977Z,8.4
2019-04-29T02:57:47.947Z,8.3
2019-04-29T02:58:35.966Z,8.3
2019-04-29T02:59:11.970Z,8.2
2019-04-29T02:59:47.889Z,8.4
2019-04-29T03:00:23.962Z,8.4
2019-04-29T03:00:59.970Z,8.4
2019-04-29T03:01:35.921Z,8.3
2019-04-29T03:02:11.895Z,8.3
2019-04-29T03:02:47.965Z,8.3
2019-04-29T03:03:23.948Z,8.4
2019-04-29T03:03:59.917Z,8.3
2019-04-29T03:04:35.890Z,8.3
2019-04-29T03:05:11.969Z,8.3
2019-04-29T03:05:47.946Z,8.4
2019-04-29T03:06:23.907Z,8.4
2019-04-29T03:06:59.872Z,8.3
2019-04-29T03:07:35.975Z,8.4
2019-04-29T03:08:11.935Z,8.3
2019-04-29T03:08:47.907Z,8.3
2019-04-29T03:09:23.968Z,8.4
2019-04-29T03:09:59.942Z,8.4
2019-04-29T03:10:35.973Z,8.4
2019-04-29T03:11:11.899Z,8.3
2019-04-29T03:11:47.861Z,8.4
2019-04-29T03:12:23.938Z,8.3
2019-04-29T03:12:59.956Z,8.4
2019-04-29T03:13:35.895Z,8.4
2019-04-29T03:14:11.890Z,8.2
2019-04-29T03:14:47.944Z,8.4
2019-04-29T03:15:23.928Z,8.4
2019-04-29T03:15:59.886Z,8.3
2019-04-29T03:16:35.853Z,8.3
2019-04-29T03:17:11.958Z,8.3
2019-04-29T03:17:47.912Z,8.3
2019-04-29T03:18:23.908Z,8.4
2019-04-29T03:18:59.982Z,8.3
2019-04-29T03:19:35.942Z,8.3
2019-04-29T03:20:11.905Z,8.3
2019-04-29T03:20:47.873Z,8.3
2019-04-29T03:21:23.984Z,8.3
2019-04-29T03:21:59.958Z,8.4
2019-04-29T03:22:35.922Z,8.4
2019-04-29T03:23:11.955Z,8.3
2019-04-29T03:23:47.990Z,8.4
2019-04-29T03:24:23.938Z,8.3
2019-04-29T03:24:59.917Z,8.3
2019-04-29T03:25:35.921Z,8.3
2019-04-29T03:26:11.969Z,8.4
2019-04-29T03:26:47.949Z,8.3
2019-04-29T03:27:23.907Z,8.3
2019-04-29T03:27:59.893Z,8.3
2019-04-29T03:28:35.988Z,8.3
2019-04-29T03:29:11.938Z,8.3
2019-04-29T03:29:47.902Z,8.3
2019-04-29T03:30:23.938Z,8.4
2019-04-29T03:30:59.960Z,8.3
2019-04-29T03:31:40.167Z,8.4
2019-04-29T03:32:11.933Z,8.4
2019-04-29T03:32:47.916Z,8.3
2019-04-29T03:33:23.986Z,8.3
2019-04-29T03:33:59.972Z,8.4
2019-04-29T03:34:35.917Z,8.3
2019-04-29T03:35:23.953Z,8.3
2019-04-29T03:35:59.870Z,8.3
2019-04-29T03:36:35.966Z,8.3
2019-04-29T03:37:11.933Z,8.2
2019-04-29T03:37:47.908Z,8.3
2019-04-29T03:38:23.866Z,8.3
2019-04-29T03:38:59.974Z,8.3
2019-04-29T03:39:35.921Z,8.4
2019-04-29T03:40:11.895Z,8.3
2019-04-29T03:40:47.894Z,8.4
2019-04-29T03:41:23.957Z,8.3
2019-04-29T03:41:59.926Z,8.4
2019-04-29T03:42:35.991Z,8.3
2019-04-29T03:43:11.873Z,8.4
2019-04-29T03:43:47.962Z,8.4
2019-04-29T03:44:23.914Z,8.4
2019-04-29T03:44:59.896Z,8.3
2019-04-29T03:45:35.875Z,8.3
2019-04-29T03:46:11.953Z,8.4
2019-04-29T03:46:47.911Z,8.3
2019-04-29T03:47:23.875Z,8.2
2019-04-29T03:47:59.856Z,8.3
2019-04-29T03:48:35.944Z,8.4
2019-04-29T03:49:11.941Z,8.3
2019-04-29T03:49:47.890Z,8.4
2019-04-29T03:50:23.863Z,8.3
2019-04-29T03:50:59.975Z,8.3
2019-04-29T03:51:47.930Z,8.4
2019-04-29T03:52:23.935Z,8.3
2019-04-29T03:52:59.883Z,8.2
2019-04-29T03:53:35.969Z,8.3
2019-04-29T03:54:11.956Z,8.4
2019-04-29T03:54:47.920Z,8.4
2019-04-29T03:55:40.214Z,8.3
2019-04-29T03:56:00.074Z,8.2
2019-04-29T03:56:35.988Z,8.3
2019-04-29T03:57:23.953Z,8.3
2019-04-29T03:57:59.898Z,8.3
2019-04-29T03:58:35.876Z,8.3
2019-04-29T03:59:12.005Z,8.4
2019-04-29T03:59:47.931Z,8.4
2019-04-29T04:00:35.942Z,8.4
2019-04-29T04:01:11.903Z,8.4
2019-04-29T04:01:47.884Z,8.4
2019-04-29T04:02:23.955Z,8.4
2019-04-29T04:02:59.925Z,8.3
2019-04-29T04:03:35.898Z,8.3
2019-04-29T04:04:11.899Z,8.4
2019-04-29T04:05:11.938Z,8.4
2019-04-29T04:05:47.860Z,8.3
2019-04-29T04:06:35.876Z,8.4
2019-04-29T04:07:23.861Z,8.3
2019-04-29T04:07:59.963Z,8.3
2019-04-29T04:08:35.946Z,8.4
2019-04-29T04:09:11.960Z,8.4
2019-04-29T04:09:47.899Z,8.3
2019-04-29T04:10:59.970Z,8.4
2019-04-29T04:11:59.957Z,8.4
2019-04-29T04:12:35.917Z,8.4
2019-04-29T04:13:11.889Z,8.4
2019-04-29T04:13:47.842Z,8.4
2019-04-29T04:14:23.956Z,8.3
2019-04-29T04:14:59.916Z,8.3
2019-04-29T04:15:35.887Z,8.4
2019-04-29T04:16:11.910Z,8.4
2019-04-29T04:16:47.939Z,8.4
2019-04-29T04:17:23.911Z,8.4
2019-04-29T04:17:59.881Z,8.4
2019-04-29T04:18:35.960Z,8.4
2019-04-29T04:19:11.939Z,8.4
2019-04-29T04:19:47.933Z,8.4
2019-04-29T04:20:23.877Z,8.4
2019-04-29T04:20:59.847Z,8.4
2019-04-29T04:21:59.874Z,8.4
2019-04-29T04:22:35.845Z,8.5
2019-04-29T04:23:12.057Z,8.4
2019-04-29T04:23:47.906Z,8.4
2019-04-29T04:24:23.861Z,8.4
2019-04-29T04:24:59.862Z,8.4
2019-04-29T04:25:35.941Z,8.4
2019-04-29T04:26:11.921Z,8.4
2019-04-29T04:26:47.873Z,8.5
2019-04-29T04:27:24.007Z,8.5
2019-04-29T04:27:59.927Z,8.5
2019-04-29T04:28:35.893Z,8.4
2019-04-29T04:29:23.891Z,8.4
2019-04-29T04:29:59.876Z,8.4
2019-04-29T04:30:35.946Z,8.5
2019-04-29T04:31:11.905Z,8.4
2019-04-29T04:31:47.885Z,8.5
2019-04-29T04:32:23.861Z,8.5
2019-04-29T04:32:59.966Z,8.4
2019-04-29T04:33:35.926Z,8.5
2019-04-29T04:34:11.875Z,8.5
2019-04-29T04:34:47.846Z,8.6
2019-04-29T04:35:23.966Z,8.5
2019-04-29T04:35:59.922Z,8.5
2019-04-29T04:36:35.888Z,8.5
2019-04-29T04:37:11.869Z,8.5
2019-04-29T04:37:47.955Z,8.5
2019-04-29T04:38:23.899Z,8.6
2019-04-29T04:38:59.881Z,8.5
2019-04-29T04:39:35.861Z,8.4
2019-04-29T04:40:23.878Z,8.5
2019-04-29T04:40:59.942Z,8.5
2019-04-29T04:41:35.901Z,8.5
2019-04-29T04:42:11.862Z,8.5
2019-04-29T04:42:47.882Z,8.5
2019-04-29T04:43:23.947Z,8.5
2019-04-29T04:43:59.947Z,8.6
2019-04-29T04:44:35.882Z,8.5
2019-04-29T04:45:11.847Z,8.6
2019-04-29T04:45:47.957Z,8.6
2019-04-29T04:46:23.921Z,8.6
2019-04-29T04:46:59.863Z,8.6
2019-04-29T04:47:35.840Z,8.6
2019-04-29T04:48:11.912Z,8.6
2019-04-29T04:48:47.900Z,8.6
2019-04-29T04:49:23.861Z,8.6
2019-04-29T04:49:59.872Z,8.6
2019-04-29T04:50:35.964Z,8.5
2019-04-29T04:51:11.902Z,8.6
2019-04-29T04:51:47.890Z,8.5
2019-04-29T04:52:23.823Z,8.6
2019-04-29T04:52:59.923Z,8.6
2019-04-29T04:53:35.908Z,8.6
2019-04-29T04:54:11.878Z,8.6
2019-04-29T04:54:47.841Z,8.7
2019-04-29T04:55:23.914Z,8.7
2019-04-29T04:55:59.897Z,8.7
2019-04-29T04:56:35.904Z,8.7
2019-04-29T04:57:11.820Z,8.7
2019-04-29T04:57:47.934Z,8.7
2019-04-29T04:58:35.951Z,8.6
2019-04-29T04:59:11.872Z,8.7
2019-04-29T04:59:47.852Z,8.6
2019-04-29T05:00:23.935Z,8.8
2019-04-29T05:00:59.919Z,8.7
2019-04-29T05:01:35.880Z,8.7
2019-04-29T05:02:11.848Z,8.8
2019-04-29T05:02:47.932Z,8.8
2019-04-29T05:03:23.920Z,8.8
2019-04-29T05:03:59.860Z,8.7
2019-04-29T05:04:35.946Z,8.8
2019-04-29T05:05:11.928Z,8.8
2019-04-29T05:05:47.954Z,8.8
2019-04-29T05:06:23.868Z,8.8
2019-04-29T05:06:59.856Z,8.8
2019-04-29T05:07:35.924Z,8.7
2019-04-29T05:08:11.895Z,8.9
2019-04-29T05:08:47.876Z,8.8
2019-04-29T05:09:23.841Z,8.8
2019-04-29T05:09:59.922Z,8.8
2019-04-29T05:10:35.905Z,8.9
2019-04-29T05:11:11.882Z,8.9
2019-04-29T05:11:47.838Z,8.8
2019-04-29T05:12:23.921Z,8.9
2019-04-29T05:13:11.941Z,8.9
2019-04-29T05:13:47.903Z,8.9
2019-04-29T05:14:23.866Z,8.8
2019-04-29T05:14:59.820Z,8.8
2019-04-29T05:15:35.915Z,8.8
2019-04-29T05:16:11.903Z,8.8
2019-04-29T05:16:47.851Z,8.9
2019-04-29T05:17:23.824Z,8.8
2019-04-29T05:17:59.908Z,8.9
2019-04-29T05:18:35.881Z,9
2019-04-29T05:19:11.870Z,8.9
2019-04-29T05:19:47.827Z,8.9
2019-04-29T05:20:23.976Z,8.8
2019-04-29T05:20:59.885Z,9
2019-04-29T05:21:35.880Z,9.1
2019-04-29T05:22:11.825Z,9
2019-04-29T05:22:47.901Z,9
2019-04-29T05:23:23.879Z,8.8
2019-04-29T05:23:59.849Z,8.9
2019-04-29T05:24:35.834Z,9
2019-04-29T05:25:11.894Z,9
2019-04-29T05:25:47.883Z,9
2019-04-29T05:26:23.876Z,9
2019-04-29T05:26:59.838Z,9
2019-04-29T05:27:35.919Z,8.9
2019-04-29T05:28:11.901Z,8.9
2019-04-29T05:28:47.853Z,8.9
2019-04-29T05:29:23.824Z,8.9
2019-04-29T05:29:59.899Z,9.1
2019-04-29T05:30:35.872Z,8.9
2019-04-29T05:31:11.842Z,8.9
2019-04-29T05:31:47.827Z,9
2019-04-29T05:32:23.897Z,9
2019-04-29T05:32:59.863Z,9
2019-04-29T05:33:35.832Z,9.1
2019-04-29T05:34:11.825Z,9.1
2019-04-29T05:34:48.579Z,9
2019-04-29T05:35:26.524Z,8.9
2019-04-29T05:36:03.776Z,8.9
2019-04-29T05:36:39.299Z,9
2019-04-29T05:37:11.892Z,9
2019-04-29T05:37:47.860Z,9.1
2019-04-29T05:38:23.833Z,9.1
2019-04-29T05:38:59.921Z,9
2019-04-29T05:39:35.880Z,8.9
2019-04-29T05:40:11.880Z,9.1
2019-04-29T05:40:47.832Z,9.1
2019-04-29T05:41:23.934Z,9
2019-04-29T05:41:59.918Z,9
2019-04-29T05:42:35.877Z,9
2019-04-29T05:43:11.858Z,9
2019-04-29T05:43:47.917Z,9.1
2019-04-29T05:44:23.879Z,8.9
2019-04-29T05:44:59.871Z,9
2019-04-29T05:45:35.828Z,9
2019-04-29T05:46:11.912Z,9
2019-04-29T05:46:47.897Z,9.1
2019-04-29T05:47:23.863Z,9.1
2019-04-29T05:47:59.819Z,9
2019-04-29T05:48:35.908Z,9
2019-04-29T05:49:11.896Z,9.1
2019-04-29T05:49:47.851Z,9.1
2019-04-29T05:50:23.815Z,9.1
2019-04-29T05:50:59.919Z,9
2019-04-29T05:51:35.880Z,9.1
2019-04-29T05:52:11.867Z,9.1
2019-04-29T05:52:50.159Z,9.2
2019-04-29T05:53:23.927Z,9.1
2019-04-29T05:53:59.878Z,9
2019-04-29T05:54:35.844Z,9
2019-04-29T05:55:15.379Z,9.1
2019-04-29T05:55:47.899Z,9.2
2019-04-29T05:56:23.875Z,9.1
2019-04-29T05:56:59.862Z,9.1
2019-04-29T05:57:35.803Z,9.1
2019-04-29T05:58:11.918Z,9.2
2019-04-29T05:58:47.868Z,9.1
2019-04-29T05:59:23.867Z,9.1
2019-04-29T05:59:59.803Z,9.1
2019-04-29T06:00:35.903Z,9.2
2019-04-29T06:01:11.871Z,9.2
2019-04-29T06:01:49.251Z,9.1
2019-04-29T06:02:36.396Z,9.2
2019-04-29T06:02:59.905Z,9.1
2019-04-29T06:03:39.755Z,9.1
2019-04-29T06:04:18.155Z,9.2
2019-04-29T06:04:52.247Z,9.2
2019-04-29T06:05:23.890Z,9.1
2019-04-29T06:05:59.875Z,9.2
2019-04-29T06:06:35.842Z,9.2
2019-04-29T06:07:11.797Z,9.2
2019-04-29T06:08:02.807Z,9.2
2019-04-29T06:08:40.573Z,9.2
2019-04-29T06:09:18.209Z,9.2
2019-04-29T06:09:47.847Z,9.2
2019-04-29T06:10:25.067Z,9.2
2019-04-29T06:10:59.892Z,9.2
2019-04-29T06:11:35.861Z,9.2
2019-04-29T06:12:11.823Z,9.2
2019-04-29T06:12:47.980Z,9.3
2019-04-29T06:13:23.909Z,9.3
2019-04-29T06:13:59.856Z,9.4
2019-04-29T06:14:35.818Z,9.2
2019-04-29T06:15:11.979Z,9.2
2019-04-29T06:15:47.890Z,9.3
2019-04-29T06:16:23.865Z,9.2
2019-04-29T06:17:07.598Z,9.3
2019-04-29T06:17:39.906Z,9.3
2019-04-29T06:18:11.902Z,9.3
2019-04-29T06:18:47.858Z,9.2
2019-04-29T06:19:23.826Z,9.2
2019-04-29T06:19:59.897Z,9.2
2019-04-29T06:20:35.888Z,9.3
2019-04-29T06:21:11.860Z,9.3
2019-04-29T06:21:47.826Z,9.3
2019-04-29T06:22:23.899Z,9.3
2019-04-29T06:22:59.873Z,9.2
2019-04-29T06:23:35.867Z,9.3
2019-04-29T06:24:11.828Z,9.3
2019-04-29T06:24:47.906Z,9.3
2019-04-29T06:25:23.903Z,9.4
2019-04-29T06:25:59.856Z,9.3
2019-04-29T06:26:35.794Z,9.3
2019-04-29T06:27:11.902Z,9.3
2019-04-29T06:27:47.867Z,9.3
2019-04-29T06:28:28.126Z,9.3
2019-04-29T06:28:59.822Z,9.4
2019-04-29T06:29:35.910Z,9.3
2019-04-29T06:30:23.904Z,9.3
2019-04-29T06:30:59.870Z,9.4
2019-04-29T06:31:35.836Z,9.4
2019-04-29T06:32:11.815Z,9.3
2019-04-29T06:32:47.894Z,9.4
2019-04-29T06:33:28.961Z,9.2
2019-04-29T06:34:05.038Z,9.3
2019-04-29T06:34:41.635Z,9.4
2019-04-29T06:35:15.412Z,9.3
2019-04-29T06:35:49.313Z,9.3
2019-04-29T06:36:23.847Z,9.4
2019-04-29T06:36:59.786Z,9.3
2019-04-29T06:37:35.883Z,9.4
2019-04-29T06:38:11.854Z,9.3
2019-04-29T06:38:59.870Z,9.3
2019-04-29T06:39:35.850Z,9.4
2019-04-29T06:40:11.791Z,9.4
2019-04-29T06:40:47.876Z,9.4
2019-04-29T06:41:23.854Z,9.3
2019-04-29T06:41:59.833Z,9.4
2019-04-29T06:42:35.781Z,9.4
2019-04-29T06:43:11.876Z,9.4
2019-04-29T06:43:47.862Z,9.4
2019-04-29T06:44:23.819Z,9.4
2019-04-29T06:44:59.786Z,9.4
2019-04-29T06:45:35.880Z,9.4
2019-04-29T06:46:11.841Z,9.3
2019-04-29T06:46:54.397Z,9.4
2019-04-29T06:47:47.849Z,9.5
2019-04-29T06:48:23.804Z,9.4
2019-04-29T06:49:11.024Z,9.5
2019-04-29T06:49:35.868Z,9.5
2019-04-29T06:50:11.855Z,9.5
2019-04-29T06:50:50.140Z,9.4
2019-04-29T06:51:23.912Z,9.5
2019-04-29T06:51:59.862Z,9.4
2019-04-29T06:52:35.843Z,9.5
2019-04-29T06:53:11.808Z,9.5
2019-04-29T06:53:48.170Z,9.4
2019-04-29T06:54:23.892Z,9.5
2019-04-29T06:54:59.906Z,9.5
2019-04-29T06:55:35.829Z,9.6
2019-04-29T06:56:11.910Z,9.5
2019-04-29T06:56:47.879Z,9.5
2019-04-29T06:57:23.863Z,9.5
2019-04-29T06:57:59.808Z,9.4
2019-04-29T06:58:38.525Z,9.5
2019-04-29T06:59:14.033Z,9.5
2019-04-29T06:59:59.870Z,9.4
2019-04-29T07:00:35.834Z,9.6
2019-04-29T07:01:11.793Z,9.5
2019-04-29T07:01:47.918Z,9.5
2019-04-29T07:02:23.861Z,9.6
2019-04-29T07:02:59.831Z,9.5
2019-04-29T07:03:47.853Z,9.6
2019-04-29T07:04:23.817Z,9.5
2019-04-29T07:04:59.900Z,9.5
2019-04-29T07:05:35.856Z,9.6
2019-04-29T07:06:11.840Z,9.5
2019-04-29T07:06:58.010Z,9.5
2019-04-29T07:07:23.878Z,9.5
2019-04-29T07:07:59.841Z,9.6
2019-04-29T07:08:35.816Z,9.5
2019-04-29T07:09:11.787Z,9.5
2019-04-29T07:09:47.901Z,9.5
2019-04-29T07:10:27.394Z,9.5
2019-04-29T07:11:03.002Z,9.6
2019-04-29T07:11:38.360Z,9.5
2019-04-29T07:12:13.914Z,9.5
2019-04-29T07:12:48.737Z,9.5
2019-04-29T07:13:24.902Z,9.5
2019-04-29T07:13:59.787Z,9.5
2019-04-29T07:14:38.842Z,9.5
2019-04-29T07:15:13.856Z,9.6
2019-04-29T07:15:49.137Z,9.6
2019-04-29T07:16:31.745Z,9.5
2019-04-29T07:17:05.420Z,9.6
2019-04-29T07:17:41.147Z,9.5
2019-04-29T07:18:11.817Z,9.6
2019-04-29T07:18:53.761Z,9.5
2019-04-29T07:19:28.248Z,9.6
2019-04-29T07:20:03.446Z,9.5
2019-04-29T07:20:38.765Z,9.6
2019-04-29T07:21:13.202Z,9.6
2019-04-29T07:21:55.033Z,9.6
2019-04-29T07:22:27.469Z,9.6
2019-04-29T07:23:02.411Z,9.5
2019-04-29T07:23:35.795Z,9.6
2019-04-29T07:24:11.877Z,9.5
2019-04-29T07:24:47.829Z,9.6
2019-04-29T07:25:28.617Z,9.6
2019-04-29T07:25:59.886Z,9.6
2019-04-29T07:26:35.869Z,9.5
2019-04-29T07:27:11.833Z,9.6
2019-04-29T07:27:47.807Z,9.5
2019-04-29T07:28:23.874Z,9.6
2019-04-29T07:28:59.853Z,9.5
2019-04-29T07:29:38.492Z,9.6
2019-04-29T07:30:11.808Z,9.6
2019-04-29T07:31:02.979Z,9.6
2019-04-29T07:31:28.108Z,9.5
2019-04-29T07:31:59.827Z,9.6
2019-04-29T07:32:35.803Z,9.6
2019-04-29T07:33:11.882Z,9.5
2019-04-29T07:33:47.870Z,9.5
2019-04-29T07:34:23.831Z,9.4
2019-04-29T07:34:59.795Z,9.6
2019-04-29T07:35:42.748Z,9.6
2019-04-29T07:36:11.908Z,9.6
2019-04-29T07:36:47.820Z,9.6
2019-04-29T07:37:23.794Z,9.6
2019-04-29T07:37:59.881Z,9.7
2019-04-29T07:38:43.451Z,9.6
2019-04-29T07:39:11.815Z,9.6
2019-04-29T07:39:47.797Z,9.6
2019-04-29T07:40:23.901Z,9.6
2019-04-29T07:40:59.863Z,9.6
2019-04-29T07:41:35.832Z,9.6
2019-04-29T07:42:11.794Z,9.7
2019-04-29T07:42:47.885Z,9.8
2019-04-29T07:43:23.833Z,9.7
2019-04-29T07:43:59.814Z,9.6
2019-04-29T07:44:44.466Z,9.8
2019-04-29T07:45:11.857Z,9.8
2019-04-29T07:45:47.840Z,9.9
2019-04-29T07:46:23.829Z,9.8
2019-04-29T07:47:02.695Z,9.8
2019-04-29T07:47:35.862Z,9.8
2019-04-29T07:48:11.832Z,9.8
2019-04-29T07:49:01.899Z,9.9
2019-04-29T07:49:23.779Z,10
2019-04-29T07:49:59.903Z,9.9
2019-04-29T07:50:35.819Z,10
2019-04-29T07:51:11.798Z,10.1
2019-04-29T07:51:47.805Z,10.1
2019-04-29T07:52:23.855Z,10
2019-04-29T07:52:59.860Z,10.1
2019-04-29T07:53:45.747Z,10.1
2019-04-29T07:54:17.533Z,10.1
2019-04-29T07:54:56.215Z,10.1
2019-04-29T07:55:30.685Z,10.2
2019-04-29T07:56:11.981Z,10.2
2019-04-29T07:56:48.064Z,10.2
2019-04-29T07:57:23.814Z,10.2
2019-04-29T07:58:00.670Z,10.2
2019-04-29T07:58:37.004Z,10.2
2019-04-29T07:59:11.931Z,10.2
2019-04-29T07:59:47.824Z,10.3
2019-04-29T08:00:24.471Z,10.2
2019-04-29T08:01:05.401Z,10.2
2019-04-29T08:01:35.871Z,10.3
2019-04-29T08:02:11.942Z,10.2
2019-04-29T08:02:48.050Z,10.3
2019-04-29T08:03:23.855Z,10.2
2019-04-29T08:03:59.991Z,10.2
2019-04-29T08:04:36.197Z,10.2
2019-04-29T08:05:11.974Z,10.2
2019-04-29T08:05:48.021Z,10.3
2019-04-29T08:06:24.085Z,10.4
2019-04-29T08:06:59.934Z,10.2
2019-04-29T08:07:35.869Z,10.3
2019-04-29T08:08:12.313Z,10.3
2019-04-29T08:08:57.411Z,10.2
2019-04-29T08:09:59.905Z,10.3
2019-04-29T08:10:35.830Z,10.2
2019-04-29T08:11:11.810Z,10.3
2019-04-29T08:11:47.888Z,10.3
2019-04-29T08:12:23.871Z,10.3
2019-04-29T08:12:59.818Z,10.2
2019-04-29T08:13:35.811Z,10.3
2019-04-29T08:14:11.875Z,10.2
2019-04-29T08:14:47.835Z,10.3
2019-04-29T08:15:23.830Z,10.4
2019-04-29T08:15:59.800Z,10.4
2019-04-29T08:16:35.929Z,10.4
2019-04-29T08:17:11.915Z,10.4
2019-04-29T08:17:47.819Z,10.3
2019-04-29T08:18:23.832Z,10.4
2019-04-29T08:18:59.872Z,10.4
2019-04-29T08:19:35.841Z,10.3
2019-04-29T08:20:11.901Z,10.4
2019-04-29T08:20:47.805Z,10.4
2019-04-29T08:21:23.867Z,10.4
2019-04-29T08:21:59.878Z,10.4
2019-04-29T08:22:35.866Z,10.5
2019-04-29T08:23:11.833Z,10.5
2019-04-29T08:23:47.880Z,10.5
2019-04-29T08:24:23.824Z,10.5
2019-04-29T08:24:59.851Z,10.5
2019-04-29T08:25:35.798Z,10.6
2019-04-29T08:26:11.882Z,10.6
2019-04-29T08:26:48.223Z,10.6
2019-04-29T08:27:23.800Z,10.5
2019-04-29T08:27:59.802Z,10.5
2019-04-29T08:28:35.882Z,10.6
2019-04-29T08:29:11.835Z,10.7
2019-04-29T08:29:47.808Z,10.8
2019-04-29T08:30:23.843Z,10.8
2019-04-29T08:30:59.850Z,10.8
2019-04-29T08:31:35.858Z,10.8
2019-04-29T08:32:11.822Z,10.8
2019-04-29T08:32:47.810Z,10.8
2019-04-29T08:33:23.852Z,10.9
2019-04-29T08:33:59.801Z,11
2019-04-29T08:34:35.775Z,11
2019-04-29T08:35:11.744Z,11
2019-04-29T08:35:47.854Z,11